Impacts METAR Board INFO
IDs:

KBWI - Baltimore-Washington, MD, US

Updated at: 0857 UTC 22 Feb 2018
Potential Impact None Slight Moderate High
Time21/20Z 21/21Z 21/22Z 21/23Z 22/00Z 22/01Z 22/02Z 22/03Z 22/04Z 22/05Z 22/06Z 22/07Z 22/08Z
VIS10 10 10 10 10 10 10 10 10 10
CIG110 -- -- -- -- 55 38 37 22 23
CoverBKNSCTFEWFEWSCTBKNOVCBKNBKNBKN
FltCatVFRVFRVFRVFRVFRVFRVFRVFRMVFRMVFR
WX--------------------
WDir2102302302102203100403040
WSpd11 14 8 7 6 3 4 8 10 12
WGst21 20 -- -- -- -- -- -- -- --
Raw hourly METARs
KBWI 211954Z 21011G21KT 10SM FEW037 BKN110 25/17 A3024 RMK AO2 SLP239 T02500167
KBWI 212054Z 23014G20KT 10SM FEW037 SCT110 26/17 A3024 RMK AO2 SLP237 T02610167 56012
KBWI 212154Z 23008KT 10SM FEW110 26/16 A3023 RMK AO2 SLP235 T02610161
KBWI 212254Z 21007KT 10SM FEW050 FEW090 FEW250 25/16 A3025 RMK AO2 SLP244 CB DSNT NE AND DSNT SW MOV E TCU DSNT W T02500161
KBWI 212354Z 22006KT 10SM FEW050 SCT070 SCT250 24/16 A3028 RMK AO2 SLP251 T02440161 10261 20239 53014



KBWI 220354Z 31003KT 10SM SCT044 BKN055 BKN120 BKN250 19/17 A3035 RMK AO2 SLP277 T01940172
KBWI 220454Z VRB04KT 10SM FEW020 BKN038 OVC055 19/15 A3037 RMK AO2 SLP284 T01940150 402610111
KBWI 220554Z 04008KT 10SM BKN037 BKN055 BKN120 18/14 A3039 RMK AO2 SLP289 T01830139 10244 20183 53018
KBWI 220654Z 03010KT 10SM BKN022 BKN037 BKN055 16/11 A3042 RMK AO2 SLP298 T01560106
KBWI 220754Z 04012KT 10SM BKN023 BKN038 13/09 A3043 RMK AO2 SLP305 T01330089